Hanford, CA (93230)

07:41 PDT le 24 octobre 2014 (GMT -0700)
North Hanford | Change Station
CLOSE
Current Station
Stations météorologiques personnelles
Location: Hanford, CA
Altitude: 249 ft
Stations météo à proximité

Alt. 249 ft 36.36 °N, 119.66 °W | Updated 16 seconds ago

Clear
Ciel dégagé
47.7 ° F
Paraît 48 ° F
N
0.0
Vent Variable Vent de ONO
Gusts 0.0 mph

Aujourd'hui
Haut(e) -- | Bas -- ° F
--% Risque de précip.
Hier
Haut(e) -- | Bas -- ° F
Precip. -- pouce
7:13 AM 6:10 PM
Nouvelle lune, 1% visible
Pression 30.00 pouce
Visibilité 6.0 Miles terrestres
Nuages Ciel dégagé
Refroidissement éolien 48 ° F
Point de rosée 45 ° F
Humidité 91%
Précipitations 0.00 pouce
Profondeur de la couche neigeuse Non disponible.
UV 0 sur 12
Pollen 2.30 sur 12
Qualité de l'air Non disponible.
Flu Activity Sporadic
METAR KHJO 241353Z AUTO 00000KT 6SM BR CLR 08/07 A2999 RMK AO2 SLP158 T00830072

More Conditions Fewer Conditions

Pression 30.00 pouce
Visibilité 6.0 Miles terrestres
Nuages Ciel dégagé
Refroidissement éolien 48 ° F
Point de rosée 45 ° F
Humidité 91%
Précipitations 0.00 pouce
Profondeur de la couche neigeuse Non disponible.
UV 0 sur 12
Pollen 2.30 sur 12
Qualité de l'air Non disponible.
Flu Activity Sporadic
METAR KHJO 241353Z AUTO 00000KT 6SM BR CLR 08/07 A2999 RMK AO2 SLP158 T00830072

More Conditions Fewer Conditions

10-Day Weather Forecast

Almanac

Astronomie

Oct. 24, 2014 Lever Coucher
Temps réel 07:13 PDT 18:10 PDT
Crépuscule civil 06:47 PDT 18:37 PDT
Crépuscule nautique 06:17 PDT 19:07 PDT
Crépuscule astronomique 05:47 PDT 19:37 PDT
Lune 07:56 PDT 18:55 PDT
Durée de lumière visible 11h 49m
Longueur du jour
10h 56m
Tomorrow will be 2m 7s shorter.
Nouvelle lune, 1% of the Moon is Illuminated
Aujourd'hui
Nouvelle lune
Oct 30
Premier quartier
Nov 6
Pleine lune
Nov 14
Dernier quartier
Nov 22
Nouveau

Extrêmes aujourd'hui

State Highs State Lows

Community

WunderPhotos

Upload Photos

1,764,581 Photos téléchargées !

WunderBlogs® & News

Nearby

Qualité de l'air

  Qualité de l'air Indice de la qualité de l'air Polluant
vendredi Moyen
PM10
samedi Moyen
PM10
dimanche Moyen
PM10
lundi Moyen
PM10
mardi Moyen
PM10

Épaisseur de neige

Station Depth Altitude
Virginia Lakes Ridge 0 in 9200 ft
Leavitt Lake 1 in 9400 ft
Sonora Pass 0 in 8800 ft
Leavitt Meadows 1 in 7200 ft
Summit Meadow 1 in 9122 ft

Activité sismique

Ville Distance Mag. Time & Date
Solvang, California 135 Miles terrestres 2.6 17:35 PDT
2014-10-22
Kettleman City, California 34 Miles terrestres 2.5 09:08 PDT
2014-10-22
Minimum magnitude displayed is 2.5.

Températures des eaux côtières

Lieu Température
Aucun rapport de station

Stations météo à proximité